Time;durP1;ratioP1;P1;durP2;ratioP2;P2;SDS_P1;SDS_P2;PMS_P1;PMS_P2;Temp;Humidity;BMP_temperature;BMP_pressure;BME280_temperature;BME280_humidity;BME280_pressure;Samples;Min_cycle;Max_cycle;Signal;HPM_P1;HPM_P2
2021/04/14 00:00:29;;;;;;;3.23;2.50;;;5.40;99.90;;;;;;5118189;28;20508;-82
2021/04/14 00:02:56;;;;;;;3.17;2.97;;;5.40;99.90;;;;;;5118099;28;20740;-82
2021/04/14 00:05:25;;;;;;;3.83;2.50;;;5.50;99.90;;;;;;5118664;28;20392;-83
2021/04/14 00:07:51;;;;;;;2.60;2.40;;;5.50;99.90;;;;;;5118942;28;20419;-82
2021/04/14 00:10:22;;;;;;;2.90;2.70;;;5.50;99.90;;;;;;5117708;28;20468;-82
2021/04/14 00:12:48;;;;;;;4.60;2.63;;;5.40;99.90;;;;;;5118571;28;20162;-81
2021/04/14 00:15:18;;;;;;;2.40;2.20;;;5.50;99.90;;;;;;5118817;28;20396;-82
2021/04/14 00:17:43;;;;;;;3.20;2.90;;;5.50;99.90;;;;;;5118474;28;20220;-82
2021/04/14 00:20:11;;;;;;;5.23;3.20;;;5.50;99.90;;;;;;5118522;28;20824;-82
2021/04/14 00:22:37;;;;;;;6.70;2.97;;;5.40;99.90;;;;;;5118552;28;20158;-81
2021/04/14 00:25:07;;;;;;;6.37;3.30;;;5.40;99.90;;;;;;5118985;28;20396;-81
2021/04/14 00:27:37;;;;;;;3.10;2.70;;;5.40;99.90;;;;;;5117572;28;20812;-80
2021/04/14 00:30:05;;;;;;;4.90;4.40;;;5.40;99.90;;;;;;5118322;28;20396;-81
2021/04/14 00:32:31;;;;;;;3.00;2.57;;;5.40;99.90;;;;;;5117368;28;20384;-82
2021/04/14 00:34:56;;;;;;;2.90;2.23;;;5.30;99.90;;;;;;5118749;28;20395;-81
2021/04/14 00:37:22;;;;;;;9.90;2.90;;;5.30;99.90;;;;;;5118456;28;20623;-81
2021/04/14 00:39:48;;;;;;;11.77;3.30;;;5.20;99.90;;;;;;5116672;28;20287;-81
2021/04/14 00:42:14;;;;;;;3.73;3.07;;;5.20;99.90;;;;;;5118064;28;20186;-81
2021/04/14 00:44:40;;;;;;;3.97;3.57;;;5.10;99.90;;;;;;5119801;28;20158;-81
2021/04/14 00:47:06;;;;;;;5.80;4.00;;;5.10;99.90;;;;;;5119788;28;20458;-81
2021/04/14 00:49:32;;;;;;;4.70;2.83;;;5.00;99.90;;;;;;5121127;28;20158;-81
2021/04/14 00:51:57;;;;;;;3.33;3.07;;;5.00;99.90;;;;;;5122124;28;20744;-81
2021/04/14 00:54:23;;;;;;;2.73;2.53;;;4.90;99.90;;;;;;5122768;28;20871;-82
2021/04/14 00:56:49;;;;;;;5.47;2.73;;;4.80;99.90;;;;;;5120575;28;20544;-82
2021/04/14 00:59:15;;;;;;;2.93;2.63;;;4.70;99.90;;;;;;5122411;28;20255;-81
2021/04/14 01:01:43;;;;;;;3.53;2.47;;;4.70;99.90;;;;;;5121118;28;20203;-81
2021/04/14 01:04:09;;;;;;;3.57;3.17;;;4.70;99.90;;;;;;5122038;28;20151;-81
2021/04/14 01:06:35;;;;;;;4.90;3.03;;;4.70;99.90;;;;;;5121950;28;20441;-82
2021/04/14 01:09:01;;;;;;;3.47;2.90;;;4.70;99.90;;;;;;5122690;28;20388;-82
2021/04/14 01:11:28;;;;;;;2.80;2.60;;;4.60;99.90;;;;;;5122327;28;20482;-82
2021/04/14 01:13:54;;;;;;;2.83;2.33;;;4.60;99.90;;;;;;5119805;28;20166;-83
2021/04/14 01:16:20;;;;;;;3.63;2.73;;;4.60;99.90;;;;;;5120893;28;20427;-83
2021/04/14 01:18:46;;;;;;;4.60;2.40;;;4.60;99.90;;;;;;5134537;28;20439;-82
2021/04/14 01:21:23;;;;;;;4.10;2.97;;;4.60;99.90;;;;;;5132079;28;20370;-81
2021/04/14 01:23:49;;;;;;;5.80;3.10;;;4.60;99.90;;;;;;5124068;28;20743;-82
2021/04/14 01:26:15;;;;;;;3.40;2.83;;;4.50;99.90;;;;;;5127839;28;20380;-79
2021/04/14 01:28:44;;;;;;;2.80;2.60;;;4.60;99.90;;;;;;5129708;28;20371;-82
2021/04/14 01:31:13;;;;;;;3.73;2.30;;;4.50;99.90;;;;;;5120426;28;20421;-82
2021/04/14 01:33:40;;;;;;;6.43;2.90;;;4.50;99.90;;;;;;5121820;28;20368;-82
2021/04/14 01:36:08;;;;;;;2.30;2.20;;;4.40;99.90;;;;;;5122467;28;20395;-82
2021/04/14 01:38:34;;;;;;;3.83;2.83;;;4.40;99.90;;;;;;5124950;28;20432;-82
2021/04/14 01:41:02;;;;;;;13.70;3.97;;;4.40;99.90;;;;;;5121324;28;20729;-82
2021/04/14 01:43:28;;;;;;;6.67;2.97;;;4.50;99.90;;;;;;5120753;28;20420;-82
2021/04/14 01:45:53;;;;;;;3.70;3.10;;;4.40;99.90;;;;;;5119990;28;20431;-81
2021/04/14 01:48:20;;;;;;;4.40;2.87;;;4.40;99.90;;;;;;5102066;28;20234;-82
2021/04/14 01:50:47;;;;;;;4.70;4.20;;;4.30;99.90;;;;;;5120654;28;20154;-82
2021/04/14 01:53:16;;;;;;;6.40;3.43;;;4.30;99.90;;;;;;5120779;28;20453;-82
2021/04/14 01:55:42;;;;;;;7.33;5.73;;;4.30;99.90;;;;;;5119610;28;20417;-82
2021/04/14 01:58:10;;;;;;;3.10;2.83;;;4.30;99.90;;;;;;5120150;28;20919;-82
2021/04/14 02:00:43;;;;;;;3.07;2.77;;;4.20;99.90;;;;;;5119993;28;20396;-82
2021/04/14 02:03:10;;;;;;;6.33;2.67;;;4.10;99.90;;;;;;5118718;28;20427;-82
2021/04/14 02:05:36;;;;;;;2.80;2.60;;;4.00;99.90;;;;;;5120362;28;20388;-82
2021/04/14 02:08:03;;;;;;;2.83;2.43;;;4.00;99.90;;;;;;5119696;28;20919;-82
2021/04/14 02:10:31;;;;;;;4.13;3.03;;;4.10;99.90;;;;;;5120213;28;20173;-81
2021/04/14 02:13:00;;;;;;;2.80;2.60;;;4.00;99.90;;;;;;5120215;28;20474;-82
2021/04/14 02:15:29;;;;;;;2.93;2.57;;;4.00;99.90;;;;;;5119958;28;20388;-80
2021/04/14 02:17:55;;;;;;;4.27;3.17;;;4.00;99.90;;;;;;5120027;28;20366;-82
2021/04/14 02:20:22;;;;;;;4.57;2.63;;;3.90;99.90;;;;;;5119671;28;20410;-81
2021/04/14 02:22:48;;;;;;;3.90;2.53;;;3.80;99.90;;;;;;5119408;28;20392;-81
2021/04/14 02:25:15;;;;;;;6.70;2.53;;;3.90;99.90;;;;;;5119561;28;20384;-82
2021/04/14 02:27:41;;;;;;;4.03;3.17;;;3.90;99.90;;;;;;5119738;28;20433;-82
2021/04/14 02:30:13;;;;;;;5.70;2.60;;;3.90;99.90;;;;;;5119866;28;20423;-82
2021/04/14 02:32:39;;;;;;;4.63;2.90;;;3.90;99.90;;;;;;5118004;28;20371;-82
2021/04/14 02:35:05;;;;;;;3.57;3.17;;;4.00;99.90;;;;;;5119725;28;20374;-82
2021/04/14 02:37:31;;;;;;;4.97;2.70;;;3.80;99.90;;;;;;5119143;28;20658;-82
2021/04/14 02:39:57;;;;;;;7.00;3.30;;;3.90;99.90;;;;;;5119246;28;20457;-82
2021/04/14 02:42:22;;;;;;;2.70;2.50;;;3.70;99.90;;;;;;5119371;28;20173;-81
2021/04/14 02:44:48;;;;;;;3.97;3.00;;;3.60;99.90;;;;;;5119722;28;20155;-81
2021/04/14 02:47:14;;;;;;;4.53;3.47;;;3.50;99.90;;;;;;5118525;28;20593;-82
2021/04/14 02:49:40;;;;;;;12.60;3.87;;;3.50;99.90;;;;;;5118967;28;20906;-81
2021/04/14 02:52:06;;;;;;;6.33;3.30;;;3.40;99.90;;;;;;5118820;28;20167;-81
2021/04/14 02:54:32;;;;;;;8.60;2.97;;;3.60;99.90;;;;;;5117596;28;20165;-81
2021/04/14 02:56:58;;;;;;;3.97;3.67;;;3.60;99.90;;;;;;5119001;28;20388;-82
2021/04/14 02:59:23;;;;;;;4.50;2.53;;;3.70;99.90;;;;;;5118701;28;20229;-82
2021/04/14 03:01:49;;;;;;;5.93;4.10;;;3.70;99.90;;;;;;5119063;28;20155;-81
2021/04/14 03:04:17;;;;;;;5.03;3.00;;;3.80;99.90;;;;;;5118755;28;20162;-82
2021/04/14 03:06:43;;;;;;;5.33;3.43;;;3.70;99.90;;;;;;5118838;28;20151;-82
2021/04/14 03:09:08;;;;;;;4.33;2.50;;;3.70;99.90;;;;;;5117577;28;20398;-81
2021/04/14 03:11:34;;;;;;;6.73;2.97;;;3.60;99.90;;;;;;5133541;28;20169;-83
2021/04/14 03:14:00;;;;;;;3.40;3.10;;;3.70;99.90;;;;;;5126035;28;20613;-83
2021/04/14 03:16:26;;;;;;;4.47;3.13;;;3.70;99.90;;;;;;5120290;28;20362;-83
2021/04/14 03:18:53;;;;;;;2.90;2.70;;;3.70;99.90;;;;;;5119914;28;20197;-83
2021/04/14 03:21:19;;;;;;;2.70;2.40;;;3.70;99.90;;;;;;5120422;28;20166;-83
2021/04/14 03:23:45;;;;;;;6.73;3.40;;;3.70;99.90;;;;;;5119602;28;20392;-83
2021/04/14 03:26:11;;;;;;;3.50;3.20;;;3.70;99.90;;;;;;5119814;28;20386;-83
2021/04/14 03:28:37;;;;;;;4.50;2.73;;;3.70;99.90;;;;;;5119760;28;20158;-83
2021/04/14 03:31:04;;;;;;;5.40;3.00;;;3.70;99.90;;;;;;5120469;28;20422;-83
2021/04/14 03:33:30;;;;;;;3.23;2.93;;;3.60;99.90;;;;;;5119556;28;20805;-83
2021/04/14 03:35:55;;;;;;;5.60;2.87;;;3.50;99.90;;;;;;5119975;28;20367;-83
2021/04/14 03:38:21;;;;;;;3.40;3.10;;;3.50;99.90;;;;;;5120124;28;20249;-83
2021/04/14 03:40:48;;;;;;;4.50;3.07;;;3.50;99.90;;;;;;5120372;28;20211;-83
2021/04/14 03:43:14;;;;;;;4.20;3.80;;;3.50;99.90;;;;;;5120036;28;20162;-83
2021/04/14 03:45:43;;;;;;;4.03;2.53;;;3.50;99.90;;;;;;5119673;28;20777;-83
2021/04/14 03:48:10;;;;;;;4.80;3.23;;;3.50;99.90;;;;;;5119903;28;20389;-83
2021/04/14 03:50:37;;;;;;;14.03;3.10;;;3.40;99.90;;;;;;5119873;28;20406;-83
2021/04/14 03:53:21;;;;;;;13.73;4.00;;;3.30;99.90;;;;;;5119356;28;20389;-82
2021/04/14 03:55:59;;;;;;;5.17;3.67;;;3.30;99.90;;;;;;5119163;28;20774;-83
2021/04/14 03:58:27;;;;;;;6.13;3.03;;;3.30;99.90;;;;;;5100878;28;20412;-83
2021/04/14 04:00:56;;;;;;;3.50;3.13;;;3.40;99.90;;;;;;5101224;28;20409;-83
2021/04/14 04:03:24;;;;;;;4.40;3.10;;;3.30;99.90;;;;;;5119003;28;20401;-82
2021/04/14 04:05:50;;;;;;;6.63;4.80;;;3.30;99.90;;;;;;5119196;28;20458;-83
2021/04/14 04:08:17;;;;;;;3.50;2.97;;;3.30;99.90;;;;;;5119003;28;20397;-83
2021/04/14 04:10:43;;;;;;;3.57;2.90;;;3.30;99.90;;;;;;5118223;28;20484;-82
2021/04/14 04:13:10;;;;;;;4.07;3.10;;;3.30;99.90;;;;;;5118200;28;20419;-82
2021/04/14 04:15:37;;;;;;;6.60;3.80;;;3.20;99.90;;;;;;5118365;28;20374;-82
2021/04/14 04:18:04;;;;;;;3.83;3.47;;;3.10;99.90;;;;;;5083093;28;20400;-82
2021/04/14 04:20:30;;;;;;;3.40;3.10;;;3.10;99.90;;;;;;5102571;28;20410;-83
2021/04/14 04:22:58;;;;;;;3.43;3.17;;;3.10;99.90;;;;;;5104277;28;20881;-82
2021/04/14 04:25:24;;;;;;;3.33;2.87;;;3.00;99.90;;;;;;5122787;28;20392;-83
2021/04/14 04:27:50;;;;;;;9.33;4.00;;;3.00;99.90;;;;;;5121721;28;20390;-83
2021/04/14 04:30:16;;;;;;;2.83;2.63;;;3.00;99.90;;;;;;5122745;28;20399;-82
2021/04/14 04:32:42;;;;;;;9.60;4.53;;;3.10;99.90;;;;;;5123070;28;20158;-83
2021/04/14 04:35:09;;;;;;;4.57;4.00;;;3.00;99.90;;;;;;5122667;28;20370;-83
2021/04/14 04:37:35;;;;;;;4.90;3.47;;;3.00;99.90;;;;;;5124301;28;20225;-82
2021/04/14 04:40:03;;;;;;;3.87;3.57;;;3.00;99.90;;;;;;5128674;28;20433;-82
2021/04/14 04:42:28;;;;;;;5.40;3.70;;;3.00;99.90;;;;;;5138025;28;20158;-82
2021/04/14 04:44:54;;;;;;;10.23;4.30;;;3.00;99.90;;;;;;5134951;28;20518;-83
2021/04/14 04:47:20;;;;;;;6.33;3.90;;;3.00;99.90;;;;;;5121539;28;20228;-83
2021/04/14 04:49:46;;;;;;;4.60;3.70;;;3.00;99.90;;;;;;5110369;28;20171;-83
2021/04/14 04:52:12;;;;;;;3.53;3.17;;;3.00;99.90;;;;;;5122271;28;20162;-82
2021/04/14 04:54:38;;;;;;;5.80;4.87;;;3.00;99.90;;;;;;5103586;28;20461;-82
2021/04/14 04:57:04;;;;;;;5.90;4.97;;;2.90;99.90;;;;;;5121797;28;20174;-82
2021/04/14 04:59:30;;;;;;;9.53;5.10;;;2.90;99.90;;;;;;5122334;28;20213;-81
2021/04/14 05:01:59;;;;;;;4.13;3.50;;;2.80;99.90;;;;;;5122131;28;20451;-82
2021/04/14 05:04:25;;;;;;;14.40;3.03;;;2.90;99.90;;;;;;5102910;28;20199;-82
2021/04/14 05:06:50;;;;;;;7.13;4.23;;;2.90;99.90;;;;;;5121817;28;20849;-81
2021/04/14 05:09:16;;;;;;;5.40;4.90;;;2.90;99.90;;;;;;5102625;28;20487;-81
2021/04/14 05:11:42;;;;;;;6.60;4.23;;;3.00;99.90;;;;;;5121586;28;20166;-82
2021/04/14 05:14:10;;;;;;;4.80;2.73;;;2.90;99.90;;;;;;5103248;28;20224;-81
2021/04/14 05:16:36;;;;;;;7.23;3.93;;;3.00;99.90;;;;;;5120342;28;20170;-81
2021/04/14 05:19:02;;;;;;;5.23;3.40;;;3.00;99.90;;;;;;5104637;28;20454;-81
2021/04/14 05:21:29;;;;;;;19.17;4.60;;;3.00;99.90;;;;;;5089000;28;20416;-82
2021/04/14 05:23:55;;;;;;;4.40;4.10;;;3.00;99.90;;;;;;5106130;28;20237;-82
2021/04/14 05:26:21;;;;;;;7.33;3.73;;;2.90;99.90;;;;;;5100731;28;20375;-82
2021/04/14 05:28:46;;;;;;;3.90;3.60;;;3.00;99.90;;;;;;5113816;28;20398;-81
2021/04/14 05:31:12;;;;;;;8.70;3.80;;;3.00;99.90;;;;;;5109532;28;20178;-80
2021/04/14 05:33:39;;;;;;;5.30;3.93;;;3.10;99.90;;;;;;5100693;28;20476;-80
2021/04/14 05:36:08;;;;;;;5.40;5.00;;;3.00;99.90;;;;;;5080101;28;20268;-81
2021/04/14 05:38:33;;;;;;;6.30;3.73;;;3.00;99.90;;;;;;5078466;28;20431;-83
2021/04/14 05:41:00;;;;;;;13.67;4.60;;;3.20;99.90;;;;;;5078301;28;20376;-82
2021/04/14 05:43:30;;;;;;;11.57;6.03;;;3.20;99.90;;;;;;5072982;28;20184;-83
2021/04/14 05:46:00;;;;;;;5.03;4.53;;;3.30;99.90;;;;;;5026108;28;20428;-83
2021/04/14 05:48:28;;;;;;;7.97;4.13;;;3.20;99.90;;;;;;5058938;28;20873;-83
2021/04/14 05:50:58;;;;;;;4.40;3.73;;;3.20;99.90;;;;;;5060437;28;20431;-82
2021/04/14 05:53:25;;;;;;;4.53;4.13;;;3.30;99.90;;;;;;5061295;28;20408;-80
2021/04/14 05:55:51;;;;;;;5.87;5.23;;;3.30;99.90;;;;;;5076011;28;20415;-82
2021/04/14 05:58:25;;;;;;;4.53;3.00;;;3.40;99.90;;;;;;5067092;28;20398;-82
2021/04/14 06:01:03;;;;;;;4.40;2.97;;;3.50;99.90;;;;;;5049714;28;20396;-82
2021/04/14 06:03:29;;;;;;;3.60;3.27;;;3.70;99.90;;;;;;5015752;28;20399;-82
2021/04/14 06:05:57;;;;;;;10.70;3.77;;;3.70;99.90;;;;;;5031823;28;20414;-82
2021/04/14 06:08:27;;;;;;;4.90;4.07;;;3.70;99.90;;;;;;5009270;28;20443;-81
2021/04/14 06:10:54;;;;;;;4.20;2.97;;;3.70;99.90;;;;;;5071383;28;20407;-82
2021/04/14 06:13:19;;;;;;;2.93;2.73;;;3.60;99.90;;;;;;5065773;28;20407;-82
2021/04/14 06:15:50;;;;;;;4.07;3.00;;;3.70;99.90;;;;;;5089785;28;20863;-83
2021/04/14 06:18:22;;;;;;;4.07;3.07;;;3.70;99.90;;;;;;5050303;28;20222;-82
2021/04/14 06:20:49;;;;;;;11.83;5.37;;;3.80;99.90;;;;;;5063208;28;20429;-82
2021/04/14 06:23:23;;;;;;;3.20;2.73;;;3.70;99.90;;;;;;5005318;28;20417;-83
2021/04/14 06:25:59;;;;;;;3.90;3.17;;;3.70;99.90;;;;;;5010876;28;20447;-83
2021/04/14 06:28:29;;;;;;;3.73;3.43;;;3.80;99.90;;;;;;5008462;28;20516;-83
2021/04/14 06:30:58;;;;;;;5.80;2.70;;;3.90;99.90;;;;;;4989421;28;20415;-84
2021/04/14 06:33:32;;;;;;;3.33;3.03;;;3.80;99.90;;;;;;5002765;28;21232;-84
2021/04/14 06:36:01;;;;;;;3.80;2.97;;;3.90;99.90;;;;;;5016967;28;20446;-83
2021/04/14 06:38:30;;;;;;;6.23;4.20;;;4.00;99.90;;;;;;5020234;28;20480;-84
2021/04/14 06:41:25;;;;;;;7.50;3.60;;;4.10;99.90;;;;;;5045335;28;20458;-84
2021/04/14 06:44:16;;;;;;;6.10;4.10;;;4.20;99.90;;;;;;5044017;28;20415;-84
2021/04/14 06:46:42;;;;;;;12.10;3.60;;;4.30;99.90;;;;;;5052542;28;20479;-84
2021/04/14 06:49:24;;;;;;;7.70;3.70;;;4.20;99.90;;;;;;5055599;28;20443;-83
2021/04/14 06:52:05;;;;;;;4.17;3.73;;;4.30;99.90;;;;;;5050044;28;20193;-83
2021/04/14 06:54:54;;;;;;;4.20;3.30;;;4.40;99.90;;;;;;5051325;28;20436;-80
2021/04/14 06:57:25;;;;;;;8.00;3.83;;;4.40;99.90;;;;;;5120862;27;20427;-81
2021/04/14 06:59:58;;;;;;;5.07;4.57;;;4.30;99.90;;;;;;5121905;28;20454;-82
2021/04/14 07:02:30;;;;;;;7.93;4.80;;;4.50;99.90;;;;;;5118669;28;20417;-82
2021/04/14 07:05:10;;;;;;;3.73;3.00;;;4.50;99.90;;;;;;5124107;28;20410;-83
2021/04/14 07:07:39;;;;;;;4.93;3.37;;;4.50;99.90;;;;;;5133367;27;20485;-84
2021/04/14 07:10:17;;;;;;;2.90;2.60;;;4.40;99.90;;;;;;5100772;28;20436;-84
2021/04/14 07:12:43;;;;;;;3.67;3.37;;;4.50;99.90;;;;;;5069498;28;20435;-84
2021/04/14 07:15:14;;;;;;;5.17;3.83;;;4.60;99.90;;;;;;5076771;28;20424;-84
2021/04/14 07:18:06;;;;;;;9.53;3.33;;;4.60;99.90;;;;;;5071983;28;20422;-85
2021/04/14 07:20:53;;;;;;;4.70;3.50;;;4.60;99.90;;;;;;5070522;28;20432;-83
2021/04/14 07:23:41;;;;;;;6.00;3.40;;;4.70;99.90;;;;;;5068060;28;20484;-84
2021/04/14 07:26:29;;;;;;;4.70;3.53;;;4.90;99.90;;;;;;5055325;28;20480;-84
2021/04/14 07:29:11;;;;;;;3.80;3.50;;;4.90;99.90;;;;;;5042938;28;20415;-84
2021/04/14 07:31:45;;;;;;;4.97;4.47;;;5.10;99.90;;;;;;5051281;28;20528;-84
2021/04/14 07:34:43;;;;;;;4.47;3.90;;;4.90;99.90;;;;;;5040202;28;20820;-84
2021/04/14 07:37:24;;;;;;;16.07;3.80;;;5.00;99.90;;;;;;5036016;28;20461;-84
2021/04/14 07:40:17;;;;;;;7.47;3.63;;;5.10;99.90;;;;;;5060958;28;20454;-82
2021/04/14 07:43:03;;;;;;;3.57;3.27;;;5.20;99.90;;;;;;5055185;28;20436;-82
2021/04/14 07:45:34;;;;;;;3.80;3.40;;;5.20;99.90;;;;;;5058357;28;20389;-81
2021/04/14 07:48:27;;;;;;;6.00;3.93;;;5.30;99.90;;;;;;5064546;28;20453;-81
2021/04/14 07:50:59;;;;;;;5.50;3.07;;;5.50;99.90;;;;;;5101793;28;20427;-80
2021/04/14 07:53:34;;;;;;;3.00;2.70;;;5.30;99.90;;;;;;5094141;28;20838;-80
2021/04/14 07:56:13;;;;;;;4.87;4.40;;;5.60;99.90;;;;;;5106189;28;20504;-79
2021/04/14 07:58:42;;;;;;;4.33;2.77;;;5.70;99.90;;;;;;5111752;28;20989;-79
2021/04/14 08:01:20;;;;;;;6.03;4.20;;;5.80;99.90;;;;;;5110414;28;20434;-79
2021/04/14 08:03:46;;;;;;;3.70;3.40;;;5.70;99.90;;;;;;5107427;28;20416;-81
2021/04/14 08:06:17;;;;;;;4.67;3.73;;;5.80;99.90;;;;;;5105590;28;20412;-81
2021/04/14 08:08:45;;;;;;;3.13;2.93;;;5.60;99.90;;;;;;5073322;28;20436;-80
2021/04/14 08:11:18;;;;;;;7.03;3.90;;;5.90;99.90;;;;;;5122192;28;20752;-80
2021/04/14 08:13:45;;;;;;;3.43;2.70;;;6.10;99.90;;;;;;5106799;28;20407;-80
2021/04/14 08:16:18;;;;;;;3.60;3.20;;;6.00;99.90;;;;;;5121060;28;20424;-79
2021/04/14 08:18:57;;;;;;;3.10;2.80;;;5.90;99.90;;;;;;5089873;28;20452;-81
2021/04/14 08:21:36;;;;;;;7.27;3.00;;;6.10;99.90;;;;;;5096176;28;20419;-81
2021/04/14 08:24:12;;;;;;;2.93;2.60;;;6.30;99.90;;;;;;5063111;28;20890;-81
2021/04/14 08:26:49;;;;;;;4.23;3.20;;;6.50;99.90;;;;;;5071588;28;20426;-80
2021/04/14 08:29:16;;;;;;;3.77;2.57;;;6.70;99.90;;;;;;5069219;28;20835;-79
2021/04/14 08:31:45;;;;;;;6.77;4.83;;;6.70;99.90;;;;;;5014915;28;20432;-80
2021/04/14 08:34:32;;;;;;;4.10;3.67;;;7.00;99.90;;;;;;5018603;28;20443;-82
2021/04/14 08:37:03;;;;;;;5.97;2.73;;;6.70;99.90;;;;;;5000431;28;21032;-79
2021/04/14 08:39:48;;;;;;;3.70;2.97;;;6.80;99.90;;;;;;4999360;28;20495;-79
2021/04/14 08:42:26;;;;;;;5.63;2.50;;;6.80;99.90;;;;;;5004693;28;20428;-84
2021/04/14 08:44:56;;;;;;;2.53;2.20;;;7.10;99.90;;;;;;4999785;28;20437;-80
2021/04/14 08:47:29;;;;;;;5.80;2.20;;;6.80;99.90;;;;;;4989274;28;20488;-82
2021/04/14 08:50:07;;;;;;;3.20;2.70;;;6.80;99.90;;;;;;5002624;28;20496;-81
2021/04/14 08:52:39;;;;;;;2.77;2.53;;;7.10;99.90;;;;;;4999377;28;20539;-80
2021/04/14 08:55:06;;;;;;;2.33;2.13;;;7.20;99.90;;;;;;5017224;28;20894;-81
2021/04/14 08:57:32;;;;;;;6.20;3.00;;;7.20;99.90;;;;;;5000293;28;20839;-80
2021/04/14 08:59:58;;;;;;;12.00;3.80;;;7.40;99.90;;;;;;5030888;28;20478;-82
2021/04/14 09:02:25;;;;;;;4.50;3.17;;;7.40;99.90;;;;;;5015315;28;20438;-82
2021/04/14 09:04:52;;;;;;;2.83;2.63;;;7.30;99.90;;;;;;5070158;28;20199;-82
2021/04/14 09:07:26;;;;;;;3.63;2.70;;;7.30;99.90;;;;;;5042203;28;20488;-82
2021/04/14 09:09:53;;;;;;;4.43;2.63;;;7.20;99.90;;;;;;5077005;28;20433;-82
2021/04/14 09:12:43;;;;;;;4.60;2.67;;;7.10;99.90;;;;;;5064834;28;20417;-82
2021/04/14 09:15:13;;;;;;;3.67;2.40;;;7.30;99.90;;;;;;5083809;28;20983;-84
2021/04/14 09:17:42;;;;;;;3.80;2.80;;;7.20;99.90;;;;;;5089951;28;20427;-81
2021/04/14 09:20:20;;;;;;;2.47;2.27;;;7.60;99.90;;;;;;5105147;28;20448;-81
2021/04/14 09:23:13;;;;;;;5.83;2.37;;;7.30;99.90;;;;;;5087441;28;20404;-82
2021/04/14 09:25:53;;;;;;;3.87;2.77;;;8.00;99.90;;;;;;5107672;28;20405;-81
2021/04/14 09:28:30;;;;;;;1.77;1.67;;;8.10;99.90;;;;;;5107550;28;20416;-82
2021/04/14 09:31:08;;;;;;;1.80;1.70;;;8.20;99.90;;;;;;5119989;28;20420;-81
2021/04/14 09:33:52;;;;;;;2.70;1.77;;;8.40;99.90;;;;;;5098309;28;20394;-80
2021/04/14 09:36:44;;;;;;;3.00;2.00;;;8.00;99.90;;;;;;5106896;28;20419;-81
2021/04/14 09:39:28;;;;;;;4.30;2.10;;;8.20;99.90;;;;;;5106331;28;20459;-79
2021/04/14 09:41:53;;;;;;;2.30;2.10;;;8.00;99.90;;;;;;5126725;28;20411;-79
2021/04/14 09:44:44;;;;;;;2.00;1.90;;;7.70;99.90;;;;;;5120307;28;20965;-81
2021/04/14 09:47:16;;;;;;;2.20;2.00;;;7.20;99.90;;;;;;5039171;28;20228;-79
2021/04/14 09:49:45;;;;;;;2.27;2.07;;;8.30;99.90;;;;;;5030647;28;20431;-79
2021/04/14 09:52:30;;;;;;;4.50;1.70;;;9.00;99.90;;;;;;5050242;28;20423;-80
2021/04/14 09:55:07;;;;;;;5.53;2.60;;;9.00;99.90;;;;;;5049224;28;20415;-81
2021/04/14 09:57:39;;;;;;;2.47;2.27;;;8.90;99.90;;;;;;5055470;28;20614;-82
2021/04/14 10:00:13;;;;;;;2.43;2.27;;;8.80;99.90;;;;;;5043826;28;20455;-82
2021/04/14 10:02:39;;;;;;;1.43;1.33;;;8.50;99.90;;;;;;5048441;28;20427;-82
2021/04/14 10:05:05;;;;;;;3.90;1.63;;;8.40;99.90;;;;;;5048974;28;20771;-81
2021/04/14 10:07:35;;;;;;;3.87;1.50;;;8.30;99.90;;;;;;5052000;28;21001;-82
2021/04/14 10:10:17;;;;;;;6.03;1.83;;;8.80;99.90;;;;;;5049204;28;20419;-82
2021/04/14 10:12:44;;;;;;;1.90;1.80;;;9.00;99.90;;;;;;5060582;28;20430;-83
2021/04/14 10:15:10;;;;;;;4.73;2.40;;;9.60;99.90;;;;;;5041156;28;20398;-82
2021/04/14 10:17:36;;;;;;;2.63;2.43;;;9.70;99.90;;;;;;5064863;28;20831;-83
2021/04/14 10:20:18;;;;;;;2.53;1.60;;;10.30;99.90;;;;;;5062596;28;20456;-82
2021/04/14 10:22:49;;;;;;;2.27;2.07;;;10.30;99.90;;;;;;5089266;28;20410;-82
2021/04/14 10:25:22;;;;;;;1.80;1.70;;;10.20;99.90;;;;;;5062383;28;20767;-82
2021/04/14 10:28:01;;;;;;;2.57;2.37;;;9.90;99.90;;;;;;5093134;28;20413;-82
2021/04/14 10:30:29;;;;;;;2.80;1.90;;;9.90;99.90;;;;;;5067323;28;20413;-81
2021/04/14 10:33:08;;;;;;;2.00;1.90;;;9.60;99.90;;;;;;5099072;28;20420;-81
2021/04/14 10:35:34;;;;;;;3.37;2.20;;;9.30;99.90;;;;;;5064224;28;20429;-82
2021/04/14 10:38:03;;;;;;;3.20;2.07;;;9.10;99.90;;;;;;5060241;28;20416;-82
2021/04/14 10:40:34;;;;;;;4.70;1.90;;;8.90;99.90;;;;;;5094203;28;20532;-82
2021/04/14 10:43:20;;;;;;;4.43;2.77;;;8.80;99.90;;;;;;5081450;28;20417;-81
2021/04/14 10:45:59;;;;;;;3.70;3.23;;;8.60;99.90;;;;;;5094248;28;20432;-81
2021/04/14 10:48:27;;;;;;;2.50;1.70;;;8.70;99.90;;;;;;5100942;28;20457;-82
2021/04/14 10:51:11;;;;;;;2.30;1.93;;;8.60;99.90;;;;;;5127315;28;20408;-79
2021/04/14 10:53:43;;;;;;;3.43;1.60;;;8.40;99.90;;;;;;5102030;28;20415;-82
2021/04/14 10:56:15;;;;;;;1.90;1.73;;;8.60;99.90;;;;;;5083817;28;20452;-82
2021/04/14 10:58:41;;;;;;;6.47;3.00;;;8.70;99.90;;;;;;5112615;28;20953;-82
2021/04/14 11:01:14;;;;;;;2.13;1.60;;;8.90;99.90;;;;;;5081301;28;20412;-81
2021/04/14 11:03:44;;;;;;;2.70;2.50;;;9.00;99.90;;;;;;5112453;28;20423;-81
2021/04/14 11:06:12;;;;;;;1.80;1.70;;;9.20;99.90;;;;;;5099918;28;20424;-81
2021/04/14 11:08:41;;;;;;;6.10;2.20;;;9.30;99.90;;;;;;5092186;28;20553;-80
2021/04/14 11:11:07;;;;;;;2.30;1.97;;;9.20;99.90;;;;;;5100545;28;20432;-81
2021/04/14 11:13:36;;;;;;;4.87;2.33;;;9.20;99.90;;;;;;5081364;28;20423;-81
2021/04/14 11:16:02;;;;;;;3.97;1.77;;;8.60;99.90;;;;;;5079406;28;20427;-81
2021/04/14 11:18:35;;;;;;;2.83;1.60;;;8.90;99.90;;;;;;5076827;28;20410;-79
2021/04/14 11:21:09;;;;;;;4.80;1.90;;;8.90;99.90;;;;;;5114062;28;20408;-80
2021/04/14 11:23:39;;;;;;;6.63;2.00;;;8.40;99.90;;;;;;5114578;28;20464;-81
2021/04/14 11:26:14;;;;;;;1.87;1.53;;;8.70;99.90;;;;;;5059254;28;20465;-81
2021/04/14 11:28:47;;;;;;;2.30;1.93;;;8.80;99.90;;;;;;5091474;28;20439;-81
2021/04/14 11:31:28;;;;;;;3.97;2.00;;;8.80;99.90;;;;;;5063274;28;20412;-81
2021/04/14 11:33:54;;;;;;;1.70;1.60;;;9.00;99.90;;;;;;5089696;28;20493;-81
2021/04/14 11:36:32;;;;;;;2.63;1.90;;;9.10;99.90;;;;;;5063478;28;20427;-78
2021/04/14 11:39:12;;;;;;;4.23;1.90;;;8.70;99.90;;;;;;5095309;28;20464;-80
2021/04/14 11:41:45;;;;;;;3.63;1.50;;;8.70;99.90;;;;;;5121311;28;20439;-78
2021/04/14 11:44:17;;;;;;;3.20;2.83;;;10.30;99.90;;;;;;5084026;28;20863;-80
2021/04/14 11:46:56;;;;;;;4.97;2.20;;;9.20;99.90;;;;;;5086077;28;20498;-80
2021/04/14 11:49:36;;;;;;;3.23;1.97;;;9.20;99.90;;;;;;5082143;28;20849;-78
2021/04/14 11:52:29;;;;;;;2.23;2.03;;;9.60;99.90;;;;;;5098478;28;20496;-82
2021/04/14 11:54:57;;;;;;;2.93;2.70;;;9.40;99.90;;;;;;5082474;28;20431;-82
2021/04/14 11:57:31;;;;;;;2.67;1.67;;;9.60;99.90;;;;;;5060825;28;20428;-81
2021/04/14 12:00:17;;;;;;;3.27;2.60;;;9.60;99.90;;;;;;5063809;28;20534;-81
2021/04/14 12:02:50;;;;;;;2.87;2.20;;;9.50;99.90;;;;;;5062697;28;20421;-82
2021/04/14 12:05:16;;;;;;;1.70;1.60;;;9.40;99.90;;;;;;5094995;28;20416;-83
2021/04/14 12:07:43;;;;;;;4.60;2.57;;;9.40;99.90;;;;;;5091141;28;20481;-81
2021/04/14 12:10:10;;;;;;;7.13;3.90;;;9.30;99.90;;;;;;5120717;28;20422;-81
2021/04/14 12:12:36;;;;;;;2.57;2.37;;;9.10;99.90;;;;;;5059559;28;20424;-80
2021/04/14 12:15:03;;;;;;;2.33;2.07;;;9.10;99.90;;;;;;5112801;28;20842;-80
2021/04/14 12:17:29;;;;;;;3.07;2.50;;;9.10;99.90;;;;;;5044125;28;20206;-81
2021/04/14 12:19:55;;;;;;;3.43;2.37;;;9.10;99.90;;;;;;5049149;28;20454;-81
2021/04/14 12:22:21;;;;;;;3.63;2.10;;;9.30;99.90;;;;;;5030818;28;20242;-81
2021/04/14 12:24:47;;;;;;;1.83;1.73;;;9.10;99.90;;;;;;5024196;28;20530;-81
2021/04/14 12:27:20;;;;;;;3.60;1.83;;;7.90;99.90;;;;;;5045471;28;20422;-81
2021/04/14 12:29:46;;;;;;;2.50;1.70;;;8.90;99.90;;;;;;5044276;28;20422;-81
2021/04/14 12:32:12;;;;;;;3.03;1.90;;;9.40;99.90;;;;;;5068700;28;20479;-80
2021/04/14 12:34:38;;;;;;;5.27;2.43;;;10.90;99.90;;;;;;5039292;28;20498;-82
2021/04/14 12:37:07;;;;;;;1.60;1.50;;;11.70;99.90;;;;;;5060674;28;20474;-81
2021/04/14 12:39:33;;;;;;;1.90;1.80;;;12.30;95.50;;;;;;5044581;28;20523;-81
2021/04/14 12:41:59;;;;;;;2.63;1.83;;;13.30;94.30;;;;;;5067230;28;20398;-79
2021/04/14 12:44:25;;;;;;;1.97;1.87;;;13.90;90.60;;;;;;5080033;28;20156;-80
2021/04/14 12:46:51;;;;;;;3.30;2.07;;;14.50;83.20;;;;;;5048815;28;20574;-81
2021/04/14 12:49:21;;;;;;;2.00;1.60;;;14.60;84.40;;;;;;5080836;28;20195;-81
2021/04/14 12:51:51;;;;;;;1.43;1.33;;;14.70;77.40;;;;;;5066025;28;20420;-81
2021/04/14 12:54:32;;;;;;;1.93;1.77;;;15.70;72.00;;;;;;5077919;28;20432;-80
2021/04/14 12:57:06;;;;;;;1.97;1.77;;;16.40;72.60;;;;;;5056373;28;20959;-80
2021/04/14 12:59:41;;;;;;;2.53;1.70;;;16.10;74.60;;;;;;5081653;28;20461;-84
2021/04/14 13:02:13;;;;;;;2.73;1.67;;;15.30;73.30;;;;;;5072512;28;20417;-82
2021/04/14 13:04:48;;;;;;;1.73;1.63;;;14.80;72.00;;;;;;5060160;28;20425;-82
2021/04/14 13:07:20;;;;;;;4.60;1.47;;;14.60;71.90;;;;;;5075375;28;20533;-82
2021/04/14 13:09:48;;;;;;;2.60;1.70;;;14.50;74.20;;;;;;5089671;28;20444;-82
2021/04/14 13:12:37;;;;;;;3.97;1.93;;;14.50;74.70;;;;;;5066673;28;20433;-81